createdAt,value
2023-05-19T00:02:05.682Z,101029.16
2023-05-19T00:05:13.138Z,101024.50
2023-05-19T00:08:19.881Z,101006.59
2023-05-19T00:11:23.911Z,101019.03
2023-05-19T00:14:26.999Z,101008.91
2023-05-19T00:17:30.258Z,100999.16
2023-05-19T00:20:33.811Z,101003.88
2023-05-19T00:23:37.364Z,101001.16
2023-05-19T00:26:40.750Z,101006.63
2023-05-19T00:29:43.774Z,101011.69
2023-05-19T00:32:46.945Z,101018.28
2023-05-19T00:35:49.957Z,101018.25
2023-05-19T00:38:52.956Z,101018.66
2023-05-19T00:41:56.294Z,101024.13
2023-05-19T00:44:59.288Z,101023.72
2023-05-19T00:48:02.539Z,101022.94
2023-05-19T00:51:06.726Z,101012.09
2023-05-19T00:54:10.449Z,101018.69
2023-05-19T00:57:15.040Z,101021.41
2023-05-19T01:00:21.428Z,101024.13
2023-05-19T01:03:25.423Z,101017.13
2023-05-19T01:06:29.855Z,101015.16
2023-05-19T01:09:33.532Z,101013.59
2023-05-19T01:12:37.388Z,101002.69
2023-05-19T01:15:57.583Z,101002.66
2023-05-19T01:19:26.728Z,101016.25
2023-05-19T01:22:46.220Z,101004.97
2023-05-19T01:26:15.362Z,101006.91
2023-05-19T01:29:54.770Z,101001.44
2023-05-19T01:33:02.010Z,101001.03
2023-05-19T01:36:08.437Z,101006.91
2023-05-19T01:39:14.128Z,101002.63
2023-05-19T01:42:20.168Z,100997.94
2023-05-19T01:45:24.268Z,101002.59
2023-05-19T01:48:28.896Z,100999.03
2023-05-19T01:51:33.860Z,101000.63
2023-05-19T01:54:38.044Z,101004.09
2023-05-19T01:58:01.461Z,101006.88
2023-05-19T02:01:28.987Z,100996.78
2023-05-19T02:04:40.550Z,100992.88
2023-05-19T02:08:00.469Z,101004.97
2023-05-19T02:11:11.118Z,100999.94
2023-05-19T02:14:20.673Z,100996.03
2023-05-19T02:17:27.789Z,100992.56
2023-05-19T02:20:33.406Z,100992.47
2023-05-19T02:23:36.550Z,100995.19
2023-05-19T02:26:40.783Z,100993.28
2023-05-19T02:29:44.104Z,100999.09
2023-05-19T02:32:47.285Z,100998.72
2023-05-19T02:35:50.898Z,101008.09
2023-05-19T02:38:54.299Z,100997.22
2023-05-19T02:41:57.318Z,101001.84
2023-05-19T02:45:01.743Z,100993.69
2023-05-19T02:48:05.205Z,101004.91
2023-05-19T02:51:10.949Z,101008.00
2023-05-19T02:54:13.824Z,101009.19
2023-05-19T02:57:16.857Z,101007.22
2023-05-19T03:00:20.198Z,101007.97
2023-05-19T03:03:23.645Z,101006.47
2023-05-19T03:06:26.906Z,101008.78
2023-05-19T03:09:30.004Z,101006.38
2023-05-19T03:12:33.736Z,101004.47
2023-05-19T03:15:37.123Z,101001.72
2023-05-19T03:18:40.935Z,101004.81
2023-05-19T03:21:44.010Z,101005.16
2023-05-19T03:24:47.684Z,101006.72
2023-05-19T03:27:53.599Z,101012.22
2023-05-19T03:30:57.191Z,101004.41
2023-05-19T03:34:04.595Z,101013.00
2023-05-19T03:37:08.129Z,101013.38
2023-05-19T03:40:13.955Z,101017.25
2023-05-19T03:43:19.386Z,101013.78
2023-05-19T03:46:28.930Z,101012.22
2023-05-19T03:49:48.537Z,101014.94
2023-05-19T03:53:14.619Z,101014.94
2023-05-19T03:56:18.350Z,101021.50
2023-05-19T03:59:21.438Z,101020.34
2023-05-19T04:02:24.793Z,101019.56
2023-05-19T04:05:28.214Z,101033.16
2023-05-19T04:08:32.228Z,101033.59
2023-05-19T04:11:35.222Z,101037.81
2023-05-19T04:14:38.168Z,101041.69
2023-05-19T04:17:41.977Z,101040.13
2023-05-19T04:20:45.674Z,101047.88
2023-05-19T04:23:48.897Z,101056.47
2023-05-19T04:26:54.377Z,101060.03
2023-05-19T04:29:58.327Z,101059.94
2023-05-19T04:33:04.852Z,101062.66
2023-05-19T04:36:11.607Z,101075.53
2023-05-19T04:39:17.072Z,101070.81
2023-05-19T04:42:21.892Z,101077.81
2023-05-19T04:45:28.164Z,101080.50
2023-05-19T04:48:34.716Z,101090.63
2023-05-19T04:51:41.399Z,101089.06
2023-05-19T04:54:45.492Z,101084.75
2023-05-19T04:57:49.973Z,101083.53
2023-05-19T05:00:56.258Z,101085.84
2023-05-19T05:03:59.524Z,101094.81
2023-05-19T05:10:20.560Z,101088.13
2023-05-19T05:13:24.930Z,101092.06
2023-05-19T05:16:32.232Z,101087.00
2023-05-19T05:19:36.251Z,101097.00
2023-05-19T05:22:39.949Z,101098.53
2023-05-19T05:25:44.909Z,101095.78
2023-05-19T05:28:48.188Z,101100.06
2023-05-19T05:31:51.318Z,101096.50
2023-05-19T05:34:54.762Z,101102.75
2023-05-19T05:37:58.477Z,101091.41
2023-05-19T05:41:03.151Z,101108.06
2023-05-19T05:44:07.177Z,101104.88
2023-05-19T05:47:16.439Z,101102.84
2023-05-19T05:50:24.223Z,101108.19
2023-05-19T05:53:32.350Z,101106.56
2023-05-19T05:56:37.644Z,101110.75
2023-05-19T05:59:45.547Z,101116.59
2023-05-19T06:02:53.270Z,101114.63
2023-05-19T06:05:59.279Z,101112.66
2023-05-19T06:09:05.022Z,101123.16
2023-05-19T06:12:09.191Z,101123.47
2023-05-19T06:15:17.487Z,101121.84
2023-05-19T06:18:46.948Z,101131.53
2023-05-19T06:21:51.490Z,101128.75
2023-05-19T06:24:54.753Z,101136.53
2023-05-19T06:27:57.984Z,101136.19
2023-05-19T06:31:01.167Z,101130.22
2023-05-19T06:34:24.417Z,101129.84
2023-05-19T06:37:27.469Z,101129.38
2023-05-19T06:40:32.408Z,101131.19
2023-05-19T06:43:36.157Z,101131.13
2023-05-19T06:46:40.227Z,101130.59
2023-05-19T06:49:45.103Z,101131.34
2023-05-19T06:52:48.618Z,101134.03
2023-05-19T06:55:59.375Z,101127.75
2023-05-19T06:59:04.885Z,101128.81
2023-05-19T07:02:12.347Z,101132.38
2023-05-19T07:05:16.418Z,101136.66
2023-05-19T07:08:24.209Z,101147.06
2023-05-19T07:11:27.522Z,101146.28
2023-05-19T07:14:34.223Z,101144.16
2023-05-19T07:17:37.487Z,101147.25
2023-05-19T07:20:41.484Z,101146.69
2023-05-19T07:23:44.978Z,101146.50
2023-05-19T07:26:48.411Z,101147.25
2023-05-19T07:29:51.656Z,101147.41
2023-05-19T07:32:58.121Z,101149.44
2023-05-19T07:36:31.354Z,101139.47
2023-05-19T07:39:36.202Z,101134.75
2023-05-19T07:42:39.442Z,101141.44
2023-05-19T07:45:42.586Z,101135.66
2023-05-19T07:48:45.865Z,101132.44
2023-05-19T07:51:55.853Z,101130.91
2023-05-19T07:54:59.898Z,101125.88
2023-05-19T07:58:29.255Z,101124.91
2023-05-19T08:01:32.947Z,101137.75
2023-05-19T08:04:36.886Z,101121.53
2023-05-19T08:07:40.347Z,101122.28
2023-05-19T08:10:43.733Z,101117.63
2023-05-19T08:13:49.084Z,101118.44
2023-05-19T08:16:52.167Z,101118.47
2023-05-19T08:19:55.660Z,101116.16
2023-05-19T08:22:58.807Z,101118.00
2023-05-19T08:26:06.847Z,101115.94
2023-05-19T08:29:10.077Z,101113.63
2023-05-19T08:32:13.560Z,101114.81
2023-05-19T08:35:16.988Z,101112.03
2023-05-19T08:38:20.430Z,101108.75
2023-05-19T08:41:23.735Z,101103.28
2023-05-19T08:44:27.551Z,101101.03
2023-05-19T08:47:33.467Z,101104.06
2023-05-19T08:50:42.738Z,101095.56
2023-05-19T08:53:50.991Z,101089.84
2023-05-19T08:56:54.388Z,101095.13
2023-05-19T08:59:58.915Z,101094.34
2023-05-19T09:03:17.353Z,101085.44
2023-05-19T09:06:26.822Z,101088.41
2023-05-19T09:09:30.836Z,101087.41
2023-05-19T09:12:34.426Z,101075.53
2023-05-19T09:15:39.363Z,101072.22
2023-05-19T09:18:56.938Z,101074.44
2023-05-19T09:22:03.824Z,101070.72
2023-05-19T09:25:17.580Z,101066.22
2023-05-19T09:28:25.632Z,101065.84
2023-05-19T09:31:33.472Z,101054.16
2023-05-19T09:34:42.318Z,101058.16
2023-05-19T09:37:46.392Z,101051.16
2023-05-19T09:40:52.724Z,101055.13
2023-05-19T09:44:00.213Z,101059.38
2023-05-19T09:47:03.853Z,101063.34
2023-05-19T09:50:09.008Z,101067.97
2023-05-19T09:53:15.483Z,101057.75
2023-05-19T09:56:23.846Z,101057.94
2023-05-19T09:59:31.320Z,101073.47
2023-05-19T10:02:36.984Z,101061.38
2023-05-19T10:05:43.235Z,101055.19
2023-05-19T10:08:48.156Z,101059.53
2023-05-19T10:11:55.856Z,101051.69
2023-05-19T10:14:59.744Z,101057.63
2023-05-19T10:18:03.520Z,101068.44
2023-05-19T10:21:08.336Z,101055.22
2023-05-19T10:24:12.783Z,101055.16
2023-05-19T10:27:17.954Z,101062.19
2023-05-19T10:30:30.261Z,101052.81
2023-05-19T10:33:56.674Z,101068.03
2023-05-19T10:37:14.022Z,101061.03
2023-05-19T10:40:29.597Z,101060.66
2023-05-19T10:43:45.202Z,101053.31
2023-05-19T10:46:48.407Z,101043.16
2023-05-19T10:49:56.141Z,101049.06
2023-05-19T10:53:00.352Z,101047.03
2023-05-19T10:56:04.386Z,101055.28
2023-05-19T10:59:08.192Z,101049.81
2023-05-19T11:02:41.541Z,101045.53
2023-05-19T11:05:51.071Z,101040.47
2023-05-19T11:08:57.525Z,101035.09
2023-05-19T11:12:05.813Z,101032.53
2023-05-19T11:15:24.145Z,101038.97
2023-05-19T11:18:27.124Z,101044.03
2023-05-19T11:21:52.377Z,101040.78
2023-05-19T11:24:55.926Z,101033.88
2023-05-19T11:27:59.298Z,101034.53
2023-05-19T11:31:02.877Z,101035.47
2023-05-19T11:34:09.478Z,101038.63
2023-05-19T11:37:12.810Z,101034.28
2023-05-19T11:40:15.977Z,101032.88
2023-05-19T11:43:19.581Z,101029.50
2023-05-19T11:46:23.234Z,101036.09
2023-05-19T11:49:29.207Z,101028.84
2023-05-19T11:52:32.459Z,101028.13
2023-05-19T11:55:35.628Z,101021.53
2023-05-19T11:58:38.934Z,101014.28
2023-05-19T12:01:42.540Z,101020.09
2023-05-19T12:04:46.596Z,101010.13
2023-05-19T12:07:51.693Z,101019.84
2023-05-19T12:10:55.031Z,101006.47
2023-05-19T12:14:02.091Z,100997.69
2023-05-19T12:17:13.318Z,100989.13
2023-05-19T12:20:16.717Z,100983.81
2023-05-19T12:23:20.386Z,100980.41
2023-05-19T12:26:23.498Z,100977.72
2023-05-19T12:29:31.199Z,100968.00
2023-05-19T12:32:36.269Z,100975.50
2023-05-19T12:35:39.448Z,100968.41
2023-05-19T12:38:43.714Z,100964.47
2023-05-19T12:41:47.460Z,100962.50
2023-05-19T12:44:52.806Z,100962.19
2023-05-19T12:47:56.915Z,100955.63
2023-05-19T12:51:00.345Z,100953.16
2023-05-19T12:54:05.058Z,100948.56
2023-05-19T12:57:11.069Z,100947.78
2023-05-19T13:00:25.327Z,100948.31
2023-05-19T13:03:28.498Z,100947.56
2023-05-19T13:06:33.191Z,100952.25
2023-05-19T13:09:36.618Z,100944.31
2023-05-19T13:12:39.659Z,100950.72
2023-05-19T13:15:45.242Z,100946.75
2023-05-19T13:18:48.585Z,100951.78
2023-05-19T13:21:52.221Z,100948.44
2023-05-19T13:24:58.852Z,100953.63
2023-05-19T13:28:05.903Z,100950.00
2023-05-19T13:31:09.379Z,100952.69
2023-05-19T13:34:12.493Z,100945.22
2023-05-19T13:37:15.799Z,100932.19
2023-05-19T13:40:19.409Z,100934.78
2023-05-19T13:43:23.188Z,100930.44
2023-05-19T13:46:36.730Z,100929.19
2023-05-19T13:49:47.862Z,100924.31
2023-05-19T13:52:50.943Z,100922.72
2023-05-19T13:55:55.273Z,100933.16
2023-05-19T13:58:58.617Z,100920.75
2023-05-19T14:02:02.921Z,100922.53
2023-05-19T14:05:07.052Z,100918.28
2023-05-19T14:08:11.473Z,100910.75
2023-05-19T14:11:21.727Z,100920.06
2023-05-19T14:14:25.291Z,100909.03
2023-05-19T14:17:30.865Z,100912.84
2023-05-19T14:20:34.550Z,100908.28
2023-05-19T14:23:37.696Z,100904.59
2023-05-19T14:26:41.854Z,100907.72
2023-05-19T14:29:45.017Z,100901.88
2023-05-19T14:32:48.464Z,100903.25
2023-05-19T14:35:53.172Z,100894.22
2023-05-19T14:38:56.837Z,100895.00
2023-05-19T14:41:59.804Z,100892.44
2023-05-19T14:45:02.837Z,100892.31
2023-05-19T14:48:06.603Z,100893.53
2023-05-19T14:51:09.981Z,100884.66
2023-05-19T14:54:13.221Z,100888.78
2023-05-19T14:57:17.575Z,100880.66
2023-05-19T15:00:20.839Z,100885.66
2023-05-19T15:03:23.884Z,100893.28
2023-05-19T15:06:27.150Z,100886.19
2023-05-19T15:09:30.191Z,100883.06
2023-05-19T15:12:33.239Z,100878.69
2023-05-19T15:15:36.356Z,100881.19
2023-05-19T15:18:39.503Z,100878.25
2023-05-19T15:21:44.508Z,100879.69
2023-05-19T15:24:47.834Z,100888.19
2023-05-19T15:27:51.029Z,100887.03
2023-05-19T15:30:54.189Z,100883.66
2023-05-19T15:33:57.543Z,100882.72
2023-05-19T15:37:01.173Z,100871.06
2023-05-19T15:40:05.046Z,100877.19
2023-05-19T15:43:08.210Z,100876.25
2023-05-19T15:46:13.477Z,100864.13
2023-05-19T15:49:18.089Z,100861.56
2023-05-19T15:52:21.110Z,100863.00
2023-05-19T15:55:24.140Z,100863.53
2023-05-19T15:58:27.096Z,100863.69
2023-05-19T16:01:30.450Z,100863.13
2023-05-19T16:04:33.811Z,100859.41
2023-05-19T16:07:37.151Z,100858.22
2023-05-19T16:10:40.585Z,100857.78
2023-05-19T16:13:43.824Z,100858.53
2023-05-19T16:16:47.336Z,100861.94
2023-05-19T16:19:50.807Z,100864.38
2023-05-19T16:22:55.658Z,100857.19
2023-05-19T16:25:59.021Z,100860.88
2023-05-19T16:29:02.448Z,100862.25
2023-05-19T16:32:05.852Z,100876.22
2023-05-19T16:35:09.687Z,100872.09
2023-05-19T16:38:12.962Z,100865.66
2023-05-19T16:41:16.179Z,100870.22
2023-05-19T16:44:19.530Z,100872.84
2023-05-19T16:47:22.824Z,100866.56
2023-05-19T16:50:26.995Z,100868.25
2023-05-19T16:53:31.278Z,100856.91
2023-05-19T16:56:34.318Z,100860.91
2023-05-19T16:59:37.386Z,100865.19
2023-05-19T17:02:40.783Z,100863.34
2023-05-19T17:05:44.390Z,100860.44
2023-05-19T17:08:47.540Z,100855.97
2023-05-19T17:11:52.614Z,100848.03
2023-05-19T17:14:55.762Z,100850.47
2023-05-19T17:17:59.759Z,100861.03
2023-05-19T17:21:05.399Z,100858.72
2023-05-19T17:24:08.605Z,100859.66
2023-05-19T17:27:12.125Z,100860.88
2023-05-19T17:30:17.229Z,100857.03
2023-05-19T17:33:20.992Z,100848.03
2023-05-19T17:36:24.721Z,100850.47
2023-05-19T17:39:27.805Z,100850.13
2023-05-19T17:42:31.816Z,100847.97
2023-05-19T17:45:35.014Z,100852.09
2023-05-19T17:48:41.198Z,100855.03
2023-05-19T17:51:48.397Z,100851.03
2023-05-19T17:54:51.976Z,100849.31
2023-05-19T17:57:55.490Z,100844.72
2023-05-19T18:00:59.965Z,100857.09
2023-05-19T18:04:04.022Z,100855.38
2023-05-19T18:07:09.844Z,100860.06
2023-05-19T18:10:15.607Z,100864.31
2023-05-19T18:13:18.760Z,100856.31
2023-05-19T18:16:22.012Z,100856.91
2023-05-19T18:19:25.452Z,100853.81
2023-05-19T18:22:29.313Z,100854.09
2023-05-19T18:25:33.728Z,100854.47
2023-05-19T18:28:37.128Z,100857.75
2023-05-19T18:31:41.288Z,100860.88
2023-05-19T18:34:44.525Z,100871.50
2023-05-19T18:37:47.794Z,100865.28
2023-05-19T18:40:52.035Z,100867.06
2023-05-19T18:43:55.165Z,100872.22
2023-05-19T18:46:58.391Z,100877.28
2023-05-19T18:50:01.644Z,100882.25
2023-05-19T18:53:05.039Z,100884.00
2023-05-19T18:56:11.620Z,100882.03
2023-05-19T18:59:14.721Z,100887.81
2023-05-19T19:02:17.886Z,100882.53
2023-05-19T19:05:21.791Z,100892.09
2023-05-19T19:08:25.283Z,100891.44
2023-05-19T19:11:31.633Z,100892.22
2023-05-19T19:14:34.890Z,100893.31
2023-05-19T19:17:40.182Z,100888.25
2023-05-19T19:20:43.173Z,100882.75
2023-05-19T19:23:46.506Z,100891.75
2023-05-19T19:26:49.857Z,100896.25
2023-05-19T19:29:54.210Z,100891.50
2023-05-19T19:32:57.380Z,100888.06
2023-05-19T19:36:01.518Z,100889.94
2023-05-19T19:39:04.527Z,100892.69
2023-05-19T19:42:07.502Z,100893.78
2023-05-19T19:45:13.111Z,100901.59
2023-05-19T19:48:18.244Z,100907.94
2023-05-19T19:51:21.448Z,100900.28
2023-05-19T19:54:24.445Z,100899.16
2023-05-19T19:57:29.227Z,100903.16
2023-05-19T20:00:32.300Z,100898.69
2023-05-19T20:03:35.809Z,100905.97
2023-05-19T20:06:39.023Z,100905.38
2023-05-19T20:09:48.142Z,100915.03
2023-05-19T20:12:51.317Z,100916.34
2023-05-19T20:15:54.521Z,100913.25
2023-05-19T20:18:57.551Z,100907.78
2023-05-19T20:22:00.815Z,100898.47
2023-05-19T20:25:04.697Z,100902.81
2023-05-19T20:28:08.573Z,100892.72
2023-05-19T20:31:11.602Z,100898.47
2023-05-19T20:34:15.084Z,100896.22
2023-05-19T20:37:18.156Z,100882.81
2023-05-19T20:40:21.337Z,100887.69
2023-05-19T20:43:24.458Z,100887.44
2023-05-19T20:46:28.101Z,100887.19
2023-05-19T20:49:31.850Z,100889.25
2023-05-19T20:52:35.443Z,100875.72
2023-05-19T20:55:39.259Z,100871.47
2023-05-19T20:58:42.714Z,100872.31
2023-05-19T21:01:46.099Z,100866.75
2023-05-19T21:04:49.938Z,100872.84
2023-05-19T21:07:53.226Z,100876.25
2023-05-19T21:10:57.666Z,100871.13
2023-05-19T21:14:04.409Z,100870.56
2023-05-19T21:17:07.919Z,100880.34
2023-05-19T21:20:11.791Z,100873.66
2023-05-19T21:23:15.076Z,100867.84
2023-05-19T21:26:22.283Z,100880.34
2023-05-19T21:29:27.466Z,100883.75
2023-05-19T21:32:30.535Z,100885.28
2023-05-19T21:35:33.731Z,100885.63
2023-05-19T21:38:39.845Z,100875.88
2023-05-19T21:41:43.077Z,100889.00
2023-05-19T21:44:46.171Z,100887.84
2023-05-19T21:47:49.389Z,100880.50
2023-05-19T21:50:56.049Z,100882.22
2023-05-19T21:53:59.115Z,100882.41
2023-05-19T21:57:02.716Z,100882.13
2023-05-19T22:00:06.764Z,100879.16
2023-05-19T22:03:14.897Z,100886.84
2023-05-19T22:06:18.434Z,100881.31
2023-05-19T22:09:25.048Z,100881.03
2023-05-19T22:12:28.052Z,100877.25
2023-05-19T22:15:31.418Z,100882.81
2023-05-19T22:18:34.715Z,100881.09
2023-05-19T22:21:41.217Z,100884.41
2023-05-19T22:24:44.558Z,100876.88
2023-05-19T22:27:47.804Z,100867.03
2023-05-19T22:30:50.927Z,100865.69
2023-05-19T22:33:54.408Z,100864.06
2023-05-19T22:36:57.496Z,100864.06
2023-05-19T22:40:00.373Z,100865.25
2023-05-19T22:43:03.576Z,100859.69
2023-05-19T22:46:06.595Z,100855.88
2023-05-19T22:49:09.699Z,100856.22
2023-05-19T22:52:13.233Z,100845.94
2023-05-19T22:55:16.618Z,100848.66
2023-05-19T22:58:19.490Z,100846.59
2023-05-19T23:01:22.428Z,100838.72
2023-05-19T23:04:25.927Z,100843.00
2023-05-19T23:07:29.133Z,100841.03
2023-05-19T23:10:32.747Z,100836.56
2023-05-19T23:13:35.879Z,100836.91
2023-05-19T23:16:38.912Z,100832.88
2023-05-19T23:19:41.932Z,100828.91
2023-05-19T23:22:44.977Z,100824.97
2023-05-19T23:25:48.162Z,100822.34
2023-05-19T23:28:51.498Z,100823.00
2023-05-19T23:31:54.918Z,100821.91
2023-05-19T23:34:58.335Z,100808.91
2023-05-19T23:38:01.300Z,100810.63
2023-05-19T23:41:05.135Z,100801.41
2023-05-19T23:44:08.709Z,100804.91
2023-05-19T23:47:11.815Z,100798.00
2023-05-19T23:50:14.828Z,100792.59
2023-05-19T23:53:20.371Z,100793.91
2023-05-19T23:56:23.432Z,100786.56
2023-05-19T23:59:26.496Z,100793.13
